createdAt,value
2018-04-28T00:00:50.316Z,1001.65
2018-04-28T00:01:50.326Z,1001.62
2018-04-28T00:02:51.305Z,1001.64
2018-04-28T00:03:50.321Z,1001.63
2018-04-28T00:04:50.328Z,1001.65
2018-04-28T00:05:50.326Z,1001.65
2018-04-28T00:06:50.333Z,1001.60
2018-04-28T00:07:50.345Z,1001.66
2018-04-28T00:08:50.336Z,1001.67
2018-04-28T00:09:50.335Z,1001.68
2018-04-28T00:10:50.339Z,1001.68
2018-04-28T00:11:50.345Z,1001.69
2018-04-28T00:12:50.346Z,1001.67
2018-04-28T00:13:50.351Z,1001.65
2018-04-28T00:14:50.354Z,1001.65
2018-04-28T00:15:50.356Z,1001.62
2018-04-28T00:16:50.368Z,1001.67
2018-04-28T00:17:50.359Z,1001.63
2018-04-28T00:18:50.358Z,1001.62
2018-04-28T00:19:50.368Z,1001.64
2018-04-28T00:20:50.371Z,1001.64
2018-04-28T00:21:50.370Z,1001.65
2018-04-28T00:22:51.310Z,1001.65
2018-04-28T00:23:50.377Z,1001.63
2018-04-28T00:24:50.382Z,1001.61
2018-04-28T00:25:50.377Z,1001.61
2018-04-28T00:26:50.380Z,1001.60
2018-04-28T00:27:50.391Z,1001.57
2018-04-28T00:28:50.385Z,1001.60
2018-04-28T00:29:50.395Z,1001.57
2018-04-28T00:30:50.394Z,1001.56
2018-04-28T00:31:50.400Z,1001.56
2018-04-28T00:32:50.401Z,1001.58
2018-04-28T00:33:50.401Z,1001.59
2018-04-28T00:34:50.403Z,1001.57
2018-04-28T00:35:50.411Z,1001.61
2018-04-28T00:36:50.411Z,1001.63
2018-04-28T00:37:50.408Z,1001.60
2018-04-28T00:39:50.423Z,1001.60
2018-04-28T00:40:50.419Z,1001.58
2018-04-28T00:41:50.427Z,1001.60
2018-04-28T00:42:50.431Z,1001.62
2018-04-28T00:43:50.431Z,1001.57
2018-04-28T00:44:50.436Z,1001.63
2018-04-28T00:45:50.434Z,1001.57
2018-04-28T00:46:50.440Z,1001.58
2018-04-28T00:47:50.442Z,1001.63
2018-04-28T00:48:57.317Z,1001.59
2018-04-28T00:49:52.244Z,1001.61
2018-04-28T00:51:50.459Z,1001.64
2018-04-28T00:52:50.461Z,1001.58
2018-04-28T00:53:50.461Z,1001.60
2018-04-28T00:54:50.473Z,1001.55
2018-04-28T00:55:50.458Z,1001.54
2018-04-28T00:56:50.470Z,1001.57
2018-04-28T00:57:50.463Z,1001.57
2018-04-28T00:58:50.472Z,1001.59
2018-04-28T00:59:50.472Z,1001.59
2018-04-28T01:00:50.478Z,1001.57
2018-04-28T01:01:50.478Z,1001.60
2018-04-28T01:02:50.489Z,1001.57
2018-04-28T01:03:50.490Z,1001.57
2018-04-28T01:04:50.501Z,1001.56
2018-04-28T01:05:50.495Z,1001.58
2018-04-28T01:06:50.515Z,1001.60
2018-04-28T01:07:50.501Z,1001.59
2018-04-28T01:08:50.497Z,1001.55
2018-04-28T01:09:50.501Z,1001.59
2018-04-28T01:10:50.501Z,1001.56
2018-04-28T01:11:50.510Z,1001.57
2018-04-28T01:12:50.506Z,1001.62
2018-04-28T01:13:50.516Z,1001.61
2018-04-28T01:14:50.512Z,1001.65
2018-04-28T01:15:50.520Z,1001.69
2018-04-28T01:16:50.521Z,1001.70
2018-04-28T01:17:50.525Z,1001.73
2018-04-28T01:18:50.528Z,1001.71
2018-04-28T01:19:50.523Z,1001.76
2018-04-28T01:20:50.536Z,1001.77
2018-04-28T01:21:50.536Z,1001.83
2018-04-28T01:22:50.536Z,1001.80
2018-04-28T01:23:50.537Z,1001.84
2018-04-28T01:24:50.544Z,1001.80
2018-04-28T01:25:50.543Z,1001.78
2018-04-28T01:26:50.544Z,1001.79
2018-04-28T01:27:50.553Z,1001.77
2018-04-28T01:28:50.561Z,1001.83
2018-04-28T01:29:50.556Z,1001.78
2018-04-28T01:30:50.555Z,1001.80
2018-04-28T01:31:50.565Z,1001.81
2018-04-28T01:32:50.565Z,1001.80
2018-04-28T01:33:50.564Z,1001.79
2018-04-28T01:34:50.569Z,1001.75
2018-04-28T01:35:50.570Z,1001.78
2018-04-28T01:36:50.579Z,1001.82
2018-04-28T01:37:50.576Z,1001.83
2018-04-28T01:38:50.584Z,1001.84
2018-04-28T01:39:50.579Z,1001.85
2018-04-28T01:40:50.591Z,1001.87
2018-04-28T01:41:50.585Z,1001.85
2018-04-28T01:42:50.590Z,1001.89
2018-04-28T01:43:50.603Z,1001.89
2018-04-28T01:44:50.593Z,1001.87
2018-04-28T01:45:50.599Z,1001.91
2018-04-28T01:46:50.600Z,1001.91
2018-04-28T01:47:50.635Z,1001.88
2018-04-28T01:48:50.607Z,1001.88
2018-04-28T01:49:50.611Z,1001.90
2018-04-28T01:50:50.618Z,1001.94
2018-04-28T01:51:50.612Z,1001.94
2018-04-28T01:52:50.631Z,1001.99
2018-04-28T01:53:50.621Z,1001.98
2018-04-28T01:54:50.646Z,1001.96
2018-04-28T01:55:50.625Z,1001.99
2018-04-28T01:56:50.635Z,1001.93
2018-04-28T01:57:50.635Z,1001.95
2018-04-28T01:58:50.640Z,1001.95
2018-04-28T01:59:50.639Z,1001.92
2018-04-28T02:00:50.647Z,1001.92
2018-04-28T02:01:50.646Z,1001.96
2018-04-28T02:02:50.642Z,1001.96
2018-04-28T02:03:50.654Z,1001.93
2018-04-28T02:04:50.654Z,1001.97
2018-04-28T02:05:50.653Z,1002.01
2018-04-28T02:06:50.662Z,1002.01
2018-04-28T02:07:50.664Z,1002.02
2018-04-28T02:08:50.670Z,1002.03
2018-04-28T02:09:50.665Z,1002.01
2018-04-28T02:10:50.674Z,1001.97
2018-04-28T02:11:50.671Z,1001.97
2018-04-28T02:12:50.684Z,1002.01
2018-04-28T02:13:50.675Z,1002.01
2018-04-28T02:14:50.685Z,1002.07
2018-04-28T02:15:50.687Z,1002.08
2018-04-28T02:16:50.690Z,1002.12
2018-04-28T02:17:50.707Z,1002.14
2018-04-28T02:18:50.705Z,1002.16
2018-04-28T02:19:50.719Z,1002.15
2018-04-28T02:20:50.704Z,1002.14
2018-04-28T02:21:50.698Z,1002.16
2018-04-28T02:22:50.707Z,1002.09
2018-04-28T02:23:50.703Z,1002.11
2018-04-28T02:24:50.713Z,1002.18
2018-04-28T02:25:50.709Z,1002.16
2018-04-28T02:26:50.716Z,1002.19
2018-04-28T02:27:50.719Z,1002.18
2018-04-28T02:28:50.739Z,1002.21
2018-04-28T02:29:50.723Z,1002.22
2018-04-28T02:30:50.743Z,1002.26
2018-04-28T02:31:50.735Z,1002.19
2018-04-28T02:32:50.731Z,1002.24
2018-04-28T02:33:50.729Z,1002.24
2018-04-28T02:34:50.739Z,1002.24
2018-04-28T02:35:50.744Z,1002.27
2018-04-28T02:36:50.740Z,1002.31
2018-04-28T02:37:50.751Z,1002.32
2018-04-28T02:38:50.749Z,1002.32
2018-04-28T02:39:50.751Z,1002.32
2018-04-28T02:40:50.756Z,1002.35
2018-04-28T02:41:50.763Z,1002.35
2018-04-28T02:42:50.766Z,1002.35
2018-04-28T02:43:50.758Z,1002.30
2018-04-28T02:44:50.763Z,1002.35
2018-04-28T02:45:50.775Z,1002.37
2018-04-28T02:46:50.774Z,1002.35
2018-04-28T02:47:50.778Z,1002.37
2018-04-28T02:48:50.778Z,1002.34
2018-04-28T02:49:50.789Z,1002.37
2018-04-28T02:50:50.780Z,1002.37
2018-04-28T02:51:50.783Z,1002.38
2018-04-28T02:52:50.796Z,1002.36
2018-04-28T02:53:50.785Z,1002.38
2018-04-28T02:54:50.792Z,1002.34
2018-04-28T02:55:50.810Z,1002.38
2018-04-28T02:56:50.806Z,1002.42
2018-04-28T02:57:50.796Z,1002.41
2018-04-28T02:58:50.797Z,1002.39
2018-04-28T02:59:50.810Z,1002.39
2018-04-28T03:00:50.813Z,1002.42
2018-04-28T03:01:50.811Z,1002.43
2018-04-28T03:02:50.819Z,1002.40
2018-04-28T03:03:50.821Z,1002.45
2018-04-28T03:04:50.819Z,1002.42
2018-04-28T03:05:50.829Z,1002.50
2018-04-28T03:06:50.820Z,1002.52
2018-04-28T03:07:50.831Z,1002.52
2018-04-28T03:08:50.830Z,1002.50
2018-04-28T03:09:50.836Z,1002.53
2018-04-28T03:10:50.831Z,1002.54
2018-04-28T03:11:50.841Z,1002.55
2018-04-28T03:12:50.842Z,1002.57
2018-04-28T03:13:50.853Z,1002.56
2018-04-28T03:14:50.847Z,1002.55
2018-04-28T03:15:50.852Z,1002.56
2018-04-28T03:16:50.855Z,1002.55
2018-04-28T03:17:50.848Z,1002.52
2018-04-28T03:18:50.858Z,1002.53
2018-04-28T03:19:50.865Z,1002.52
2018-04-28T03:20:50.868Z,1002.51
2018-04-28T03:21:50.870Z,1002.52
2018-04-28T03:22:50.863Z,1002.47
2018-04-28T03:23:50.870Z,1002.51
2018-04-28T03:24:50.880Z,1002.50
2018-04-28T03:25:50.870Z,1002.49
2018-04-28T03:26:50.877Z,1002.49
2018-04-28T03:27:51.855Z,1002.52
2018-04-28T03:28:50.883Z,1002.52
2018-04-28T03:29:50.885Z,1002.51
2018-04-28T03:30:50.883Z,1002.50
2018-04-28T03:31:50.896Z,1002.53
2018-04-28T03:32:50.890Z,1002.55
2018-04-28T03:33:50.900Z,1002.55
2018-04-28T03:34:50.902Z,1002.59
2018-04-28T03:35:50.895Z,1002.55
2018-04-28T03:36:50.901Z,1002.53
2018-04-28T03:37:50.902Z,1002.55
2018-04-28T03:38:50.907Z,1002.52
2018-04-28T03:39:50.915Z,1002.53
2018-04-28T03:40:50.909Z,1002.52
2018-04-28T03:41:50.920Z,1002.51
2018-04-28T03:42:50.919Z,1002.54
2018-04-28T03:43:50.925Z,1002.52
2018-04-28T03:44:50.925Z,1002.52
2018-04-28T03:45:50.924Z,1002.54
2018-04-28T03:46:50.933Z,1002.54
2018-04-28T03:47:50.927Z,1002.58
2018-04-28T03:48:50.938Z,1002.54
2018-04-28T03:49:50.933Z,1002.53
2018-04-28T03:50:50.936Z,1002.53
2018-04-28T03:51:50.948Z,1002.58
2018-04-28T03:52:50.951Z,1002.54
2018-04-28T03:53:50.956Z,1002.59
2018-04-28T03:54:50.947Z,1002.58
2018-04-28T03:55:50.948Z,1002.57
2018-04-28T03:56:50.963Z,1002.62
2018-04-28T03:57:50.953Z,1002.60
2018-04-28T03:58:50.965Z,1002.57
2018-04-28T03:59:50.958Z,1002.55
2018-04-28T04:00:50.963Z,1002.59
2018-04-28T04:01:50.973Z,1002.55
2018-04-28T04:02:50.972Z,1002.59
2018-04-28T04:03:50.972Z,1002.58
2018-04-28T04:04:50.977Z,1002.55
2018-04-28T04:05:50.989Z,1002.60
2018-04-28T04:06:50.995Z,1002.60
2018-04-28T04:07:50.981Z,1002.57
2018-04-28T04:08:50.986Z,1002.58
2018-04-28T04:09:50.986Z,1002.60
2018-04-28T04:10:50.995Z,1002.63
2018-04-28T04:11:50.994Z,1002.62
2018-04-28T04:12:51.004Z,1002.65
2018-04-28T04:13:51.020Z,1002.68
2018-04-28T04:14:51.017Z,1002.64
2018-04-28T04:15:51.001Z,1002.66
2018-04-28T04:16:51.026Z,1002.65
2018-04-28T04:17:51.012Z,1002.65
2018-04-28T04:18:51.195Z,1002.66
2018-04-28T04:19:51.043Z,1002.67
2018-04-28T04:20:51.063Z,1002.66
2018-04-28T04:21:51.018Z,1002.68
2018-04-28T04:22:51.029Z,1002.73
2018-04-28T04:23:51.024Z,1002.69
2018-04-28T04:24:51.032Z,1002.70
2018-04-28T04:25:51.024Z,1002.74
2018-04-28T04:26:51.034Z,1002.76
2018-04-28T04:27:51.038Z,1002.78
2018-04-28T04:28:51.040Z,1002.83
2018-04-28T04:29:51.057Z,1002.82
2018-04-28T04:30:51.041Z,1002.84
2018-04-28T04:31:51.087Z,1002.86
2018-04-28T04:32:51.051Z,1002.86
2018-04-28T04:33:51.052Z,1002.92
2018-04-28T04:34:51.058Z,1002.91
2018-04-28T04:35:51.064Z,1002.89
2018-04-28T04:36:51.076Z,1002.92
2018-04-28T04:37:51.084Z,1002.94
2018-04-28T04:38:51.088Z,1002.96
2018-04-28T04:39:51.087Z,1002.95
2018-04-28T04:40:51.085Z,1002.97
2018-04-28T04:41:51.101Z,1002.97
2018-04-28T04:42:51.153Z,1003.02
2018-04-28T04:43:51.087Z,1003.04
2018-04-28T04:44:51.124Z,1003.04
2018-04-28T04:45:51.096Z,1003.09
2018-04-28T04:46:51.094Z,1003.07
2018-04-28T04:47:51.088Z,1003.05
2018-04-28T04:48:51.196Z,1003.09
2018-04-28T04:49:51.109Z,1003.12
2018-04-28T04:50:51.101Z,1003.13
2018-04-28T04:51:51.102Z,1003.18
2018-04-28T04:52:51.111Z,1003.19
2018-04-28T04:53:51.110Z,1003.16
2018-04-28T04:54:51.122Z,1003.20
2018-04-28T04:55:51.116Z,1003.15
2018-04-28T04:56:51.130Z,1003.17
2018-04-28T04:57:51.121Z,1003.15
2018-04-28T04:58:51.126Z,1003.14
2018-04-28T04:59:51.125Z,1003.16
2018-04-28T05:00:51.132Z,1003.20
2018-04-28T05:01:51.132Z,1003.20
2018-04-28T05:02:51.143Z,1003.24
2018-04-28T05:03:51.153Z,1003.25
2018-04-28T05:04:51.143Z,1003.27
2018-04-28T05:05:51.156Z,1003.25
2018-04-28T05:06:51.170Z,1003.25
2018-04-28T05:07:51.154Z,1003.26
2018-04-28T05:08:51.156Z,1003.28
2018-04-28T05:09:51.160Z,1003.24
2018-04-28T05:10:51.166Z,1003.30
2018-04-28T05:11:51.172Z,1003.31
2018-04-28T05:12:51.172Z,1003.35
2018-04-28T05:13:51.172Z,1003.36
2018-04-28T05:14:51.174Z,1003.36
2018-04-28T05:15:51.180Z,1003.38
2018-04-28T05:16:51.188Z,1003.40
2018-04-28T05:17:51.182Z,1003.39
2018-04-28T05:18:51.189Z,1003.40
2018-04-28T05:19:51.188Z,1003.44
2018-04-28T05:20:51.195Z,1003.49
2018-04-28T05:21:51.204Z,1003.50
2018-04-28T05:22:51.199Z,1003.50
2018-04-28T05:23:51.217Z,1003.54
2018-04-28T05:24:51.214Z,1003.53
2018-04-28T05:25:51.212Z,1003.54
2018-04-28T05:26:51.218Z,1003.54
2018-04-28T05:27:51.228Z,1003.58
2018-04-28T05:28:51.239Z,1003.60
2018-04-28T05:29:51.234Z,1003.55
2018-04-28T05:30:51.236Z,1003.60
2018-04-28T05:31:51.239Z,1003.62
2018-04-28T05:32:51.235Z,1003.64
2018-04-28T05:33:51.246Z,1003.66
2018-04-28T05:34:51.246Z,1003.69
2018-04-28T05:35:51.275Z,1003.69
2018-04-28T05:36:51.254Z,1003.69
2018-04-28T05:37:51.257Z,1003.76
2018-04-28T05:38:51.288Z,1003.76
2018-04-28T05:39:51.268Z,1003.77
2018-04-28T05:40:51.271Z,1003.77
2018-04-28T05:41:51.283Z,1003.81
2018-04-28T05:42:51.279Z,1003.79
2018-04-28T05:43:51.279Z,1003.90
2018-04-28T05:44:51.287Z,1003.94
2018-04-28T05:45:51.288Z,1004.03
2018-04-28T05:46:51.298Z,1004.12
2018-04-28T05:47:51.297Z,1004.16
2018-04-28T05:48:51.307Z,1004.05
2018-04-28T05:49:51.304Z,1004.33
2018-04-28T05:50:51.316Z,1003.99
2018-04-28T05:51:51.317Z,1003.99
2018-04-28T05:52:51.329Z,1004.00
2018-04-28T05:53:51.323Z,1004.21
2018-04-28T05:54:51.334Z,1004.25
2018-04-28T05:55:51.337Z,1003.96
2018-04-28T05:56:51.347Z,1004.02
2018-04-28T05:57:51.432Z,1004.14
2018-04-28T05:58:51.359Z,1004.28
2018-04-28T05:59:51.371Z,1004.34
2018-04-28T06:00:51.372Z,1004.34
2018-04-28T06:01:51.382Z,1004.38
2018-04-28T06:02:51.374Z,1004.38
2018-04-28T06:03:51.397Z,1004.37
2018-04-28T06:04:51.406Z,1004.48
2018-04-28T06:05:51.407Z,1004.53
2018-04-28T06:06:51.397Z,1004.47
2018-04-28T06:07:51.427Z,1004.43
2018-04-28T06:08:51.412Z,1004.41
2018-04-28T06:09:51.475Z,1004.42
2018-04-28T06:10:51.433Z,1004.33
2018-04-28T06:11:51.439Z,1004.27
2018-04-28T06:12:51.448Z,1004.54
2018-04-28T06:13:51.458Z,1004.62
2018-04-28T06:14:51.460Z,1004.77
2018-04-28T06:15:51.466Z,1004.89
2018-04-28T06:16:51.476Z,1004.85
2018-04-28T06:17:51.480Z,1005.03
2018-04-28T06:18:51.508Z,1005.11
2018-04-28T06:19:51.528Z,1004.63
2018-04-28T06:20:51.517Z,1004.72
2018-04-28T06:21:51.512Z,1004.52
2018-04-28T06:22:51.538Z,1004.42
2018-04-28T06:23:51.964Z,1004.36
2018-04-28T06:25:51.623Z,1004.26
2018-04-28T06:26:51.560Z,1004.32
2018-04-28T06:30:34.019Z,1004.29
2018-04-28T06:31:33.039Z,1004.33
2018-04-28T06:33:25.090Z,1004.32
2018-04-28T06:34:25.107Z,1004.32
2018-04-28T06:36:18.048Z,1004.27
2018-04-28T06:37:18.043Z,1004.30
2018-04-28T06:39:10.990Z,1004.39
2018-04-28T06:40:11.000Z,1004.47
2018-04-28T06:42:03.948Z,1005.08
2018-04-28T06:43:03.951Z,1005.35
2018-04-28T06:45:00.931Z,1005.28
2018-04-28T06:46:00.901Z,1005.35
2018-04-28T06:47:00.912Z,1005.33
2018-04-28T06:48:00.919Z,1005.34
2018-04-28T06:49:00.930Z,1004.75
2018-04-28T06:50:00.937Z,1005.27
2018-04-28T06:51:00.990Z,1004.87
2018-04-28T06:52:00.955Z,1004.76
2018-04-28T06:53:01.082Z,1004.67
2018-04-28T06:54:00.974Z,1004.59
2018-04-28T06:55:00.985Z,1004.94
2018-04-28T06:56:00.995Z,1005.35
2018-04-28T06:57:01.003Z,1005.42
2018-04-28T06:58:01.010Z,1005.35
2018-04-28T06:59:01.022Z,1005.40
2018-04-28T07:00:01.032Z,1005.30
2018-04-28T07:01:01.041Z,1005.28
2018-04-28T07:02:01.047Z,1005.50
2018-04-28T07:03:01.066Z,1005.57
2018-04-28T07:04:01.070Z,1005.69
2018-04-28T07:05:01.088Z,1005.76
2018-04-28T07:06:54.038Z,1005.58
2018-04-28T07:07:54.025Z,1005.73
2018-04-28T07:09:46.994Z,1005.72
2018-04-28T07:10:47.018Z,1005.76
2018-04-28T07:12:39.955Z,1005.70
2018-04-28T07:13:39.931Z,1005.44
2018-04-28T07:15:32.876Z,1005.39
2018-04-28T07:16:32.894Z,1005.54
2018-04-28T07:18:25.859Z,1005.60
2018-04-28T07:19:25.846Z,1005.76
2018-04-28T07:21:18.838Z,1005.80
2018-04-28T07:22:18.800Z,1005.35
2018-04-28T07:24:11.889Z,1005.50
2018-04-28T07:25:11.767Z,1005.34
2018-04-28T07:27:04.806Z,1005.39
2018-04-28T07:28:04.826Z,1005.44
2018-04-28T07:29:57.852Z,1005.55
2018-04-28T07:30:57.788Z,1005.73
2018-04-28T07:32:50.786Z,1005.86
2018-04-28T07:33:50.733Z,1005.80
2018-04-28T07:35:43.761Z,1005.87
2018-04-28T07:36:43.701Z,1005.69
2018-04-28T07:38:36.655Z,1005.87
2018-04-28T07:39:36.644Z,1006.11
2018-04-28T07:41:29.635Z,1005.72
2018-04-28T07:42:29.613Z,1005.48
2018-04-28T07:44:22.570Z,1005.46
2018-04-28T07:45:22.576Z,1005.54
2018-04-28T07:47:15.626Z,1005.14
2018-04-28T07:48:15.526Z,1005.08
2018-04-28T07:50:08.484Z,1005.07
2018-04-28T07:51:08.481Z,1005.09
2018-04-28T07:53:01.479Z,1005.19
2018-04-28T07:54:01.501Z,1005.14
2018-04-28T07:55:54.388Z,1005.12
2018-04-28T07:56:54.394Z,1005.16
2018-04-28T07:58:47.378Z,1005.16
2018-04-28T07:59:47.359Z,1005.33
2018-04-28T08:01:40.844Z,1005.30
2018-04-28T08:02:40.817Z,1005.30
2018-04-28T08:04:33.860Z,1005.24
2018-04-28T08:05:33.779Z,1005.15
2018-04-28T08:07:26.729Z,1005.13
2018-04-28T08:08:26.734Z,1005.12
2018-04-28T08:10:19.717Z,1005.05
2018-04-28T08:11:19.698Z,1005.05
2018-04-28T08:13:12.641Z,1005.02
2018-04-28T08:14:12.658Z,1005.06
2018-04-28T08:16:05.651Z,1005.02
2018-04-28T08:17:05.620Z,1005.03
2018-04-28T08:18:58.613Z,1004.93
2018-04-28T08:19:58.606Z,1004.88
2018-04-28T08:21:51.642Z,1004.89
2018-04-28T08:22:51.616Z,1004.93
2018-04-28T08:24:44.564Z,1004.93
2018-04-28T08:25:44.580Z,1004.94
2018-04-28T08:27:38.129Z,1004.96
2018-04-28T08:28:38.068Z,1004.94
2018-04-28T08:30:31.001Z,1004.99
2018-04-28T08:31:31.997Z,1004.99
2018-04-28T08:32:31.007Z,1004.93
2018-04-28T08:34:23.950Z,1005.00
2018-04-28T08:35:23.909Z,1004.99
2018-04-28T08:37:16.959Z,1005.10
2018-04-28T08:38:16.814Z,1005.05
2018-04-28T08:40:09.805Z,1005.04
2018-04-28T08:41:09.779Z,1005.07
2018-04-28T08:43:02.721Z,1005.07
2018-04-28T08:44:02.733Z,1005.14
2018-04-28T08:45:55.733Z,1005.13
2018-04-28T08:46:55.719Z,1005.17
2018-04-28T08:47:55.735Z,1005.13
2018-04-28T08:48:55.735Z,1005.13
2018-04-28T08:49:55.744Z,1005.12
2018-04-28T08:50:55.756Z,1005.17
2018-04-28T08:51:55.757Z,1005.20
2018-04-28T08:52:55.771Z,1005.23
2018-04-28T08:53:55.776Z,1005.23
2018-04-28T08:54:55.778Z,1005.25
2018-04-28T08:55:55.791Z,1005.27
2018-04-28T08:56:55.796Z,1005.27
2018-04-28T08:57:55.802Z,1005.26
2018-04-28T08:58:55.813Z,1005.38
2018-04-28T08:59:55.817Z,1005.41
2018-04-28T09:00:55.832Z,1005.40
2018-04-28T09:01:55.839Z,1005.38
2018-04-28T09:02:55.846Z,1005.40
2018-04-28T09:03:55.861Z,1005.39
2018-04-28T09:04:55.859Z,1005.40
2018-04-28T09:05:55.874Z,1005.45
2018-04-28T09:06:55.876Z,1005.56
2018-04-28T09:07:55.886Z,1005.40
2018-04-28T09:08:55.900Z,1005.35
2018-04-28T09:09:55.907Z,1005.41
2018-04-28T09:10:55.920Z,1005.39
2018-04-28T09:11:55.937Z,1005.36
2018-04-28T09:12:55.944Z,1005.92
2018-04-28T09:13:55.950Z,1005.42
2018-04-28T09:14:55.964Z,1005.35
2018-04-28T09:15:55.973Z,1005.27
2018-04-28T09:16:55.971Z,1005.28
2018-04-28T09:17:55.989Z,1005.38
2018-04-28T09:18:55.996Z,1006.17
2018-04-28T09:19:56.003Z,1006.05
2018-04-28T09:20:56.018Z,1006.04
2018-04-28T09:21:56.033Z,1006.05
2018-04-28T09:22:56.064Z,1005.88
2018-04-28T09:23:56.049Z,1005.42
2018-04-28T09:24:56.099Z,1005.38
2018-04-28T09:25:56.076Z,1005.47
2018-04-28T09:26:56.074Z,1005.66
2018-04-28T09:27:56.097Z,1005.50
2018-04-28T09:28:56.106Z,1005.81
2018-04-28T09:29:56.114Z,1005.61
2018-04-28T09:30:56.133Z,1005.61
2018-04-28T09:31:56.141Z,1005.81
2018-04-28T09:32:56.157Z,1005.98
2018-04-28T09:33:56.167Z,1005.81
2018-04-28T09:34:56.226Z,1005.44
2018-04-28T09:35:56.187Z,1005.71
2018-04-28T09:36:56.209Z,1005.80
2018-04-28T09:37:56.355Z,1005.71
2018-04-28T09:38:56.229Z,1005.83
2018-04-28T09:39:56.344Z,1005.60
2018-04-28T09:40:56.260Z,1005.57
2018-04-28T09:41:56.267Z,1005.57
2018-04-28T09:42:56.286Z,1005.59
2018-04-28T09:43:56.296Z,1005.67
2018-04-28T09:44:56.333Z,1005.59
2018-04-28T09:45:56.329Z,1005.59
2018-04-28T09:46:56.339Z,1005.58
2018-04-28T09:47:56.356Z,1005.56
2018-04-28T09:48:56.363Z,1005.55
2018-04-28T09:49:56.382Z,1005.53
2018-04-28T09:50:56.390Z,1005.54
2018-04-28T09:51:56.406Z,1005.58
2018-04-28T09:52:56.423Z,1005.51
2018-04-28T09:53:56.440Z,1005.51
2018-04-28T09:54:56.448Z,1005.49
2018-04-28T09:55:56.485Z,1005.47
2018-04-28T09:56:56.474Z,1005.40
2018-04-28T09:57:56.504Z,1005.41
2018-04-28T09:58:56.575Z,1005.42
2018-04-28T09:59:56.512Z,1005.36
2018-04-28T10:00:56.528Z,1005.41
2018-04-28T10:01:56.537Z,1005.38
2018-04-28T10:02:56.551Z,1005.36
2018-04-28T10:03:56.568Z,1005.40
2018-04-28T10:04:56.575Z,1005.40
2018-04-28T10:05:56.599Z,1005.41
2018-04-28T10:06:56.617Z,1005.39
2018-04-28T10:07:56.619Z,1005.40
2018-04-28T10:08:56.626Z,1005.42
2018-04-28T10:09:56.634Z,1005.43
2018-04-28T10:10:56.655Z,1005.40
2018-04-28T10:11:56.671Z,1005.38
2018-04-28T10:12:56.676Z,1005.41
2018-04-28T10:13:56.679Z,1005.41
2018-04-28T10:14:57.628Z,1005.43
2018-04-28T10:15:56.708Z,1005.45
2018-04-28T10:16:56.719Z,1005.44
2018-04-28T10:17:56.738Z,1005.43
2018-04-28T10:18:56.740Z,1005.43
2018-04-28T10:19:56.745Z,1005.45
2018-04-28T10:20:56.754Z,1005.44
2018-04-28T10:21:56.765Z,1005.39
2018-04-28T10:22:56.772Z,1005.38
2018-04-28T10:23:56.783Z,1005.38
2018-04-28T10:24:56.801Z,1005.41
2018-04-28T10:25:56.805Z,1005.34
2018-04-28T10:26:56.817Z,1005.40
2018-04-28T10:27:56.828Z,1005.38
2018-04-28T10:28:56.828Z,1005.35
2018-04-28T10:29:56.848Z,1005.43
2018-04-28T10:30:56.872Z,1005.44
2018-04-28T10:31:56.860Z,1005.44
2018-04-28T10:32:56.869Z,1005.47
2018-04-28T10:33:56.878Z,1005.43
2018-04-28T10:34:56.894Z,1005.42
2018-04-28T10:35:56.901Z,1005.42
2018-04-28T10:36:56.906Z,1005.46
2018-04-28T10:37:56.920Z,1005.41
2018-04-28T10:38:56.936Z,1005.41
2018-04-28T10:39:56.936Z,1005.41
2018-04-28T10:40:56.950Z,1005.40
2018-04-28T10:41:56.951Z,1005.36
2018-04-28T10:42:56.974Z,1005.43
2018-04-28T10:43:56.969Z,1005.41
2018-04-28T10:44:56.987Z,1005.34
2018-04-28T10:45:56.988Z,1005.39
2018-04-28T10:46:57.015Z,1005.39
2018-04-28T10:47:57.012Z,1005.38
2018-04-28T10:48:57.044Z,1005.43
2018-04-28T10:49:57.056Z,1005.42
2018-04-28T10:50:57.058Z,1005.46
2018-04-28T10:51:57.054Z,1005.41
2018-04-28T10:52:57.099Z,1005.40
2018-04-28T10:53:57.149Z,1005.42
2018-04-28T10:54:57.077Z,1005.42
2018-04-28T10:55:57.078Z,1005.41
2018-04-28T10:56:57.106Z,1005.43
2018-04-28T10:57:57.099Z,1005.49
2018-04-28T10:58:57.108Z,1005.44
2018-04-28T10:59:57.119Z,1005.46
2018-04-28T11:00:57.127Z,1005.47
2018-04-28T11:01:57.130Z,1005.46
2018-04-28T11:02:57.142Z,1005.46
2018-04-28T11:03:57.147Z,1005.48
2018-04-28T11:04:57.159Z,1005.46
2018-04-28T11:05:57.163Z,1005.44
2018-04-28T11:06:57.179Z,1005.48
2018-04-28T11:07:57.184Z,1005.46
2018-04-28T11:08:57.199Z,1005.51
2018-04-28T11:09:57.210Z,1005.53
2018-04-28T11:10:57.208Z,1005.52
2018-04-28T11:11:57.219Z,1005.52
2018-04-28T11:12:57.231Z,1005.48
2018-04-28T11:13:57.238Z,1005.50
2018-04-28T11:14:57.254Z,1005.51
2018-04-28T11:15:57.257Z,1005.50
2018-04-28T11:16:57.265Z,1005.46
2018-04-28T11:17:57.268Z,1005.52
2018-04-28T11:18:57.289Z,1005.49
2018-04-28T11:19:57.390Z,1005.53
2018-04-28T11:20:57.310Z,1005.56
2018-04-28T11:21:57.311Z,1005.58
2018-04-28T11:22:57.321Z,1005.58
2018-04-28T11:23:57.329Z,1005.59
2018-04-28T11:24:57.338Z,1005.55
2018-04-28T11:25:57.340Z,1005.61
2018-04-28T11:26:57.368Z,1005.57
2018-04-28T11:27:57.371Z,1005.61
2018-04-28T11:28:57.374Z,1005.59
2018-04-28T11:29:57.384Z,1005.60
2018-04-28T11:30:57.390Z,1005.63
2018-04-28T11:31:57.397Z,1005.62
2018-04-28T11:32:57.430Z,1005.63
2018-04-28T11:33:57.418Z,1005.62
2018-04-28T11:34:57.428Z,1005.57
2018-04-28T11:35:57.447Z,1005.63
2018-04-28T11:36:57.437Z,1005.61
2018-04-28T11:37:57.448Z,1005.61
2018-04-28T11:38:57.465Z,1005.61
2018-04-28T11:39:57.468Z,1005.64
2018-04-28T11:40:57.483Z,1005.61
2018-04-28T11:41:57.489Z,1005.64
2018-04-28T11:42:57.540Z,1005.63
2018-04-28T11:43:57.502Z,1005.63
2018-04-28T11:44:57.512Z,1005.64
2018-04-28T11:45:57.512Z,1005.69
2018-04-28T11:46:57.531Z,1005.64
2018-04-28T11:47:57.531Z,1005.66
2018-04-28T11:48:57.560Z,1005.68
2018-04-28T11:49:57.549Z,1005.66
2018-04-28T11:50:57.580Z,1005.63
2018-04-28T11:51:57.564Z,1005.59
2018-04-28T11:52:57.585Z,1005.60
2018-04-28T11:53:57.591Z,1005.59
2018-04-28T11:54:57.603Z,1005.57
2018-04-28T11:55:57.632Z,1005.57
2018-04-28T11:56:57.615Z,1005.58
2018-04-28T11:57:57.627Z,1005.56
2018-04-28T11:58:57.645Z,1005.55
2018-04-28T11:59:57.643Z,1005.53
2018-04-28T12:00:57.646Z,1005.51
2018-04-28T12:01:57.678Z,1005.50
2018-04-28T12:02:57.665Z,1005.52
2018-04-28T12:03:57.679Z,1005.50
2018-04-28T12:04:57.698Z,1005.59
2018-04-28T12:05:57.692Z,1005.58
2018-04-28T12:06:57.707Z,1005.55
2018-04-28T12:07:57.707Z,1005.58
2018-04-28T12:08:57.723Z,1005.61
2018-04-28T12:09:57.737Z,1005.59
2018-04-28T12:10:57.747Z,1005.58
2018-04-28T12:11:57.789Z,1005.60
2018-04-28T12:12:57.758Z,1005.57
2018-04-28T12:13:57.767Z,1005.59
2018-04-28T12:14:57.771Z,1005.60
2018-04-28T12:15:57.808Z,1005.55
2018-04-28T12:16:57.798Z,1005.59
2018-04-28T12:17:57.817Z,1005.56
2018-04-28T12:18:57.804Z,1005.58
2018-04-28T12:19:57.812Z,1005.56
2018-04-28T12:20:57.865Z,1005.59
2018-04-28T12:21:57.827Z,1005.59
2018-04-28T12:22:57.838Z,1005.52
2018-04-28T12:23:57.850Z,1005.57
2018-04-28T12:24:57.854Z,1005.57
2018-04-28T12:25:57.862Z,1005.57
2018-04-28T12:26:57.880Z,1005.57
2018-04-28T12:27:57.873Z,1005.57
2018-04-28T12:28:57.893Z,1005.56
2018-04-28T12:29:57.978Z,1005.56
2018-04-28T12:30:57.902Z,1005.65
2018-04-28T12:31:57.916Z,1005.67
2018-04-28T12:32:57.915Z,1005.61
2018-04-28T12:33:57.931Z,1005.58
2018-04-28T12:34:57.932Z,1005.59
2018-04-28T12:35:58.025Z,1005.52
2018-04-28T12:36:57.951Z,1005.48
2018-04-28T12:37:57.961Z,1005.47
2018-04-28T12:38:57.966Z,1005.45
2018-04-28T12:39:57.971Z,1005.44
2018-04-28T12:40:57.983Z,1005.45
2018-04-28T12:41:57.989Z,1005.46
2018-04-28T12:42:57.997Z,1005.45
2018-04-28T12:43:58.011Z,1005.45
2018-04-28T12:44:58.013Z,1005.45
2018-04-28T12:45:58.021Z,1005.46
2018-04-28T12:46:58.038Z,1005.43